createdAt,value
2022-10-05T00:09:37.970Z,20.50
2022-10-05T00:19:46.687Z,25.90
2022-10-05T00:29:58.996Z,24.30
2022-10-05T00:40:13.646Z,28.20
2022-10-05T00:50:29.457Z,24.50
2022-10-05T01:00:38.013Z,21.20
2022-10-05T01:10:53.234Z,33.10
2022-10-05T01:20:58.642Z,29.90
2022-10-05T01:31:14.653Z,25.40
2022-10-05T01:41:23.581Z,29.80
2022-10-05T01:51:28.342Z,33.60
2022-10-05T02:01:33.458Z,29.60
2022-10-05T02:11:45.404Z,25.90
2022-10-05T02:21:57.743Z,29.10
2022-10-05T02:32:09.099Z,26.90
2022-10-05T02:42:13.852Z,31.90
2022-10-05T02:52:23.119Z,24.60
2022-10-05T03:02:34.802Z,29.20
2022-10-05T03:12:51.433Z,25.70
2022-10-05T03:23:01.980Z,35.60
2022-10-05T03:33:16.006Z,40.80
2022-10-05T03:43:33.716Z,34.50
2022-10-05T03:53:43.723Z,39.00
2022-10-05T04:03:51.381Z,31.70
2022-10-05T04:14:00.699Z,48.30
2022-10-05T04:24:14.718Z,32.90
2022-10-05T04:34:22.919Z,29.30
2022-10-05T04:44:34.780Z,43.20
2022-10-05T04:54:43.789Z,39.10
2022-10-05T05:05:10.219Z,32.10
2022-10-05T05:15:19.433Z,37.40
2022-10-05T05:25:29.158Z,33.80
2022-10-05T05:36:09.343Z,27.40
2022-10-05T05:46:18.166Z,31.20
2022-10-05T05:56:33.182Z,27.80
2022-10-05T06:06:44.160Z,22.10
2022-10-05T06:16:55.692Z,31.80
2022-10-05T06:27:21.045Z,25.40
2022-10-05T06:37:29.001Z,14.40
2022-10-05T06:47:35.116Z,13.90
2022-10-05T06:57:44.664Z,18.20
2022-10-05T07:07:56.566Z,12.30
2022-10-05T07:18:05.289Z,9.60
2022-10-05T07:28:14.840Z,10.10
2022-10-05T07:38:19.912Z,6.60
2022-10-05T07:48:33.321Z,6.80
2022-10-05T07:58:44.605Z,6.20
2022-10-05T08:08:54.714Z,7.80
2022-10-05T08:19:06.775Z,6.00
2022-10-05T08:29:16.873Z,6.40
2022-10-05T08:39:22.874Z,7.10
2022-10-05T08:50:04.608Z,5.50
2022-10-05T09:00:13.816Z,9.30
2022-10-05T09:10:47.907Z,6.10
2022-10-05T09:20:56.814Z,4.50
2022-10-05T09:31:17.270Z,5.90
2022-10-05T09:41:53.306Z,7.20
2022-10-05T09:52:17.932Z,6.90
2022-10-05T10:02:29.045Z,5.80
2022-10-05T10:12:51.518Z,6.10
2022-10-05T10:23:16.534Z,4.30
2022-10-05T10:33:37.518Z,4.20
2022-10-05T10:44:11.503Z,6.40
2022-10-05T10:54:42.957Z,3.80
2022-10-05T11:05:02.246Z,4.20
2022-10-05T11:25:51.311Z,3.90
2022-10-05T11:36:33.468Z,7.90
2022-10-05T11:46:39.970Z,5.30
2022-10-05T11:56:49.502Z,5.50
2022-10-05T12:07:05.394Z,9.10
2022-10-05T12:17:12.676Z,4.70
2022-10-05T12:27:21.734Z,6.80
2022-10-05T12:37:39.061Z,5.50
2022-10-05T12:47:49.306Z,5.10
2022-10-05T12:58:01.687Z,8.20
2022-10-05T13:08:18.228Z,6.40
2022-10-05T13:18:30.104Z,7.70
2022-10-05T13:28:40.264Z,7.00
2022-10-05T13:38:48.482Z,6.70
2022-10-05T13:48:58.501Z,6.70
2022-10-05T13:59:12.207Z,7.20
2022-10-05T14:09:35.104Z,4.40
2022-10-05T14:19:45.500Z,6.30
2022-10-05T14:29:55.805Z,8.10
2022-10-05T14:40:04.204Z,9.00
2022-10-05T14:50:17.989Z,9.50
2022-10-05T15:00:24.524Z,10.80
2022-10-05T15:10:29.942Z,9.40
2022-10-05T15:20:35.817Z,11.30
2022-10-05T15:30:47.057Z,10.30
2022-10-05T15:40:52.967Z,9.90
2022-10-05T15:51:00.895Z,13.00
2022-10-05T16:01:13.147Z,10.80
2022-10-05T16:11:22.735Z,14.50
2022-10-05T16:21:29.484Z,14.60
2022-10-05T16:31:34.970Z,15.20
2022-10-05T16:41:42.711Z,9.30
2022-10-05T16:51:50.762Z,14.00
2022-10-05T17:01:56.422Z,13.80
2022-10-05T17:12:13.087Z,13.70
2022-10-05T17:22:22.821Z,11.80
2022-10-05T17:32:36.428Z,10.60
2022-10-05T17:42:47.494Z,12.10
2022-10-05T17:53:12.455Z,11.30
2022-10-05T18:03:36.888Z,10.50
2022-10-05T18:13:44.150Z,9.80
2022-10-05T18:24:01.524Z,12.40
2022-10-05T18:34:18.113Z,15.60
2022-10-05T18:44:31.257Z,16.00
2022-10-05T18:54:40.708Z,11.20
2022-10-05T19:04:50.679Z,9.80
2022-10-05T19:14:55.659Z,9.60
2022-10-05T19:25:16.274Z,9.20
2022-10-05T19:35:22.566Z,15.80
2022-10-05T19:55:36.764Z,14.20
2022-10-05T20:05:44.253Z,12.50
2022-10-05T20:16:40.153Z,7.60
2022-10-05T20:27:03.975Z,9.00
2022-10-05T20:37:11.637Z,9.40
2022-10-05T20:47:19.236Z,6.60
2022-10-05T20:57:26.858Z,9.40
2022-10-05T21:07:35.457Z,12.90
2022-10-05T21:17:41.363Z,14.20
2022-10-05T21:27:47.596Z,6.50
2022-10-05T21:37:55.034Z,10.80
2022-10-05T21:48:02.417Z,7.20
2022-10-05T21:58:10.017Z,10.60
2022-10-05T22:08:20.263Z,7.50
2022-10-05T22:18:27.697Z,9.30
2022-10-05T22:28:35.939Z,12.30
2022-10-05T22:38:43.150Z,5.60
2022-10-05T22:48:50.194Z,5.20
2022-10-05T22:58:57.361Z,5.40
2022-10-05T23:09:04.541Z,5.00
2022-10-05T23:19:11.571Z,3.70
2022-10-05T23:29:18.736Z,5.00
2022-10-05T23:39:25.849Z,6.80
2022-10-05T23:49:32.922Z,6.30
2022-10-05T23:59:40.314Z,6.70
